createdAt,value
2023-01-21T00:01:17.911Z,34.20
2023-01-21T00:03:45.686Z,32.50
2023-01-21T00:06:15.962Z,34.67
2023-01-21T00:08:43.426Z,35.28
2023-01-21T00:11:12.898Z,35.63
2023-01-21T00:13:41.369Z,33.00
2023-01-21T00:16:09.000Z,32.22
2023-01-21T00:18:36.451Z,33.50
2023-01-21T00:21:03.506Z,31.15
2023-01-21T00:23:30.862Z,32.53
2023-01-21T00:26:02.844Z,30.35
2023-01-21T00:28:31.905Z,32.42
2023-01-21T00:31:00.001Z,33.65
2023-01-21T00:33:28.247Z,31.50
2023-01-21T00:36:02.742Z,31.35
2023-01-21T00:38:30.768Z,30.13
2023-01-21T00:41:11.882Z,27.48
2023-01-21T00:43:40.192Z,26.45
2023-01-21T00:46:12.190Z,26.13
2023-01-21T00:48:41.948Z,24.55
2023-01-21T00:51:09.788Z,24.60
2023-01-21T00:53:39.187Z,25.45
2023-01-21T00:56:12.792Z,25.45
2023-01-21T00:58:40.800Z,23.05
2023-01-21T01:01:14.460Z,25.60
2023-01-21T01:06:15.100Z,25.77
2023-01-21T01:08:43.421Z,25.40
2023-01-21T01:11:11.313Z,23.63
2023-01-21T01:13:38.822Z,24.75
2023-01-21T01:16:06.833Z,24.35
2023-01-21T01:18:36.162Z,23.60
2023-01-21T01:21:04.708Z,23.52
2023-01-21T01:23:32.639Z,24.85
2023-01-21T01:26:05.556Z,24.00
2023-01-21T01:28:37.742Z,23.77
2023-01-21T01:31:09.305Z,25.88
2023-01-21T01:33:36.763Z,23.42
2023-01-21T01:36:08.661Z,24.35
2023-01-21T01:38:35.954Z,23.77
2023-01-21T01:41:03.391Z,25.63
2023-01-21T01:43:56.890Z,25.95
2023-01-21T01:46:36.968Z,22.33
2023-01-21T01:49:11.352Z,24.83
2023-01-21T01:51:41.457Z,24.17
2023-01-21T01:54:09.893Z,24.55
2023-01-21T01:56:43.325Z,24.38
2023-01-21T01:59:11.188Z,24.40
2023-01-21T02:01:38.815Z,25.17
2023-01-21T02:04:14.275Z,24.42
2023-01-21T02:06:44.494Z,24.73
2023-01-21T02:09:11.829Z,27.65
2023-01-21T02:11:39.062Z,25.80
2023-01-21T02:14:10.154Z,24.23
2023-01-21T02:16:55.303Z,26.90
2023-01-21T02:19:47.183Z,24.45
2023-01-21T02:22:58.995Z,24.08
2023-01-21T02:25:41.450Z,23.50
2023-01-21T02:28:43.601Z,24.95
2023-01-21T02:31:14.025Z,23.98
2023-01-21T02:34:01.156Z,22.92
2023-01-21T02:36:52.721Z,24.02
2023-01-21T02:39:40.975Z,22.83
2023-01-21T02:42:20.276Z,23.75
2023-01-21T02:45:17.469Z,23.77
2023-01-21T02:48:16.978Z,25.27
2023-01-21T02:50:50.109Z,24.38
2023-01-21T02:53:37.764Z,24.88
2023-01-21T02:56:21.650Z,24.40
2023-01-21T02:59:00.119Z,25.13
2023-01-21T03:01:33.538Z,23.50
2023-01-21T03:04:38.045Z,23.08
2023-01-21T03:07:15.985Z,25.10
2023-01-21T03:09:43.407Z,23.92
2023-01-21T03:12:31.489Z,23.48
2023-01-21T03:15:04.120Z,22.55
2023-01-21T03:18:08.334Z,24.73
2023-01-21T03:20:45.193Z,25.85
2023-01-21T03:23:21.402Z,23.77
2023-01-21T03:25:55.907Z,23.88
2023-01-21T03:28:26.345Z,23.80
2023-01-21T03:31:01.490Z,21.92
2023-01-21T03:33:31.436Z,21.48
2023-01-21T03:36:04.688Z,21.98
2023-01-21T03:38:41.484Z,20.00
2023-01-21T03:41:16.235Z,20.42
2023-01-21T03:43:45.708Z,19.17
2023-01-21T03:46:33.214Z,19.05
2023-01-21T03:49:06.633Z,18.38
2023-01-21T03:51:49.970Z,18.67
2023-01-21T03:54:17.243Z,18.38
2023-01-21T03:56:44.622Z,19.58
2023-01-21T03:59:16.368Z,20.58
2023-01-21T04:04:25.920Z,22.30
2023-01-21T04:06:53.320Z,23.17
2023-01-21T04:09:20.361Z,23.23
2023-01-21T04:11:49.962Z,23.13
2023-01-21T04:14:16.962Z,21.55
2023-01-21T04:16:46.713Z,22.92
2023-01-21T04:19:13.777Z,21.38
2023-01-21T04:21:41.266Z,21.60
2023-01-21T04:24:10.824Z,19.60
2023-01-21T04:26:40.026Z,20.10
2023-01-21T04:29:07.392Z,17.80
2023-01-21T04:31:37.425Z,20.52
2023-01-21T04:34:04.539Z,22.08
2023-01-21T04:36:31.901Z,21.00
2023-01-21T04:39:01.246Z,21.30
2023-01-21T04:41:28.840Z,19.35
2023-01-21T04:43:55.923Z,19.05
2023-01-21T04:46:23.287Z,18.70
2023-01-21T04:48:50.314Z,19.17
2023-01-21T04:51:19.935Z,18.92
2023-01-21T04:53:47.024Z,19.50
2023-01-21T04:56:16.579Z,19.65
2023-01-21T04:58:43.612Z,18.27
2023-01-21T05:01:11.008Z,18.35
2023-01-21T05:03:42.632Z,19.27
2023-01-21T05:06:12.429Z,18.80
2023-01-21T05:08:41.941Z,18.85
2023-01-21T05:11:18.406Z,19.30
2023-01-21T05:13:48.192Z,20.73
2023-01-21T05:16:15.595Z,19.05
2023-01-21T05:18:44.010Z,19.13
2023-01-21T05:21:15.274Z,20.40
2023-01-21T05:23:42.284Z,19.40
2023-01-21T05:26:09.638Z,18.67
2023-01-21T05:28:36.677Z,17.98
2023-01-21T05:31:04.696Z,18.67
2023-01-21T05:33:33.730Z,18.08
2023-01-21T05:36:04.395Z,17.20
2023-01-21T05:38:33.920Z,18.60
2023-01-21T05:41:02.636Z,16.73
2023-01-21T05:43:32.092Z,17.27
2023-01-21T05:45:59.487Z,17.73
2023-01-21T05:48:26.606Z,17.48
2023-01-21T05:50:58.611Z,18.10
2023-01-21T05:53:26.176Z,16.45
2023-01-21T05:55:57.110Z,16.35
2023-01-21T05:58:25.785Z,16.45
2023-01-21T06:00:54.081Z,15.60
2023-01-21T06:03:21.340Z,15.82
2023-01-21T06:05:49.914Z,15.45
2023-01-21T06:08:17.839Z,16.85
2023-01-21T06:10:45.503Z,15.25
2023-01-21T06:13:15.751Z,15.38
2023-01-21T06:15:43.175Z,15.32
2023-01-21T06:18:12.718Z,14.63
2023-01-21T06:20:40.459Z,15.07
2023-01-21T06:23:07.505Z,14.80
2023-01-21T06:25:34.943Z,14.07
2023-01-21T06:28:04.280Z,14.05
2023-01-21T06:30:31.618Z,14.18
2023-01-21T06:32:58.738Z,14.93
2023-01-21T06:35:26.152Z,15.18
2023-01-21T06:37:53.188Z,16.00
2023-01-21T06:40:20.542Z,13.88
2023-01-21T06:42:50.223Z,15.00
2023-01-21T06:45:17.715Z,14.55
2023-01-21T06:47:47.861Z,15.60
2023-01-21T06:50:17.380Z,15.02
2023-01-21T06:52:46.744Z,14.50
2023-01-21T06:55:15.394Z,14.70
2023-01-21T06:57:45.435Z,13.48
2023-01-21T07:00:15.859Z,15.43
2023-01-21T07:02:45.442Z,14.65
2023-01-21T07:05:13.055Z,15.27
2023-01-21T07:07:42.635Z,14.52
2023-01-21T07:10:10.635Z,15.13
2023-01-21T07:12:37.727Z,13.98
2023-01-21T07:15:08.283Z,14.07
2023-01-21T07:17:37.813Z,15.13
2023-01-21T07:20:06.303Z,14.80
2023-01-21T07:22:36.423Z,13.80
2023-01-21T07:25:04.067Z,14.98
2023-01-21T07:27:31.142Z,13.82
2023-01-21T07:29:58.499Z,15.23
2023-01-21T07:32:25.514Z,13.30
2023-01-21T07:34:52.882Z,13.60
2023-01-21T07:37:19.911Z,13.77
2023-01-21T07:39:47.286Z,13.55
2023-01-21T07:42:14.281Z,14.38
2023-01-21T07:44:43.890Z,14.65
2023-01-21T07:47:10.938Z,15.02
2023-01-21T07:49:38.393Z,14.00
2023-01-21T07:52:07.668Z,15.00
2023-01-21T07:54:35.106Z,14.82
2023-01-21T07:57:02.158Z,13.73
2023-01-21T07:59:29.590Z,14.95
2023-01-21T08:01:56.715Z,14.25
2023-01-21T08:04:26.619Z,14.55
2023-01-21T08:06:53.665Z,14.02
2023-01-21T08:09:21.117Z,14.70
2023-01-21T08:11:48.158Z,13.18
2023-01-21T08:14:15.537Z,14.57
2023-01-21T08:16:42.667Z,13.70
2023-01-21T08:19:11.980Z,13.43
2023-01-21T08:21:40.084Z,12.25
2023-01-21T08:24:10.376Z,13.35
2023-01-21T08:26:39.989Z,13.35
2023-01-21T08:29:07.464Z,12.63
2023-01-21T08:31:37.142Z,12.30
2023-01-21T08:34:04.562Z,11.95
2023-01-21T08:36:31.667Z,11.98
2023-01-21T08:38:59.312Z,12.38
2023-01-21T08:41:26.378Z,11.63
2023-01-21T08:43:53.706Z,11.65
2023-01-21T08:46:20.769Z,12.70
2023-01-21T08:48:48.102Z,10.95
2023-01-21T08:51:17.583Z,11.82
2023-01-21T08:53:44.959Z,12.02
2023-01-21T08:56:12.005Z,13.55
2023-01-21T08:58:41.846Z,13.00
2023-01-21T09:01:14.261Z,12.48
2023-01-21T09:03:41.957Z,12.77
2023-01-21T09:06:11.169Z,12.45
2023-01-21T09:08:38.534Z,11.45
2023-01-21T09:11:06.213Z,10.32
2023-01-21T09:13:39.190Z,10.13
2023-01-21T09:16:20.502Z,10.18
2023-01-21T09:18:50.377Z,9.68
2023-01-21T09:21:17.561Z,11.40
2023-01-21T09:23:47.823Z,10.93
2023-01-21T09:26:20.651Z,10.32
2023-01-21T09:28:53.664Z,9.73
2023-01-21T09:31:24.780Z,9.15
2023-01-21T09:33:56.988Z,9.88
2023-01-21T09:36:27.201Z,8.82
2023-01-21T09:38:57.162Z,8.90
2023-01-21T09:41:39.052Z,8.90
2023-01-21T09:44:33.529Z,10.07
2023-01-21T09:47:03.461Z,11.50
2023-01-21T09:49:40.851Z,9.30
2023-01-21T09:52:26.457Z,9.85
2023-01-21T09:54:55.511Z,9.48
2023-01-21T09:57:36.184Z,9.52
2023-01-21T10:00:11.971Z,9.88
2023-01-21T10:02:59.955Z,9.35
2023-01-21T10:05:50.364Z,8.48
2023-01-21T10:08:36.576Z,10.23
2023-01-21T10:11:38.912Z,9.82
2023-01-21T10:14:11.811Z,9.10
2023-01-21T10:17:14.411Z,9.98
2023-01-21T10:20:19.355Z,9.35
2023-01-21T10:22:54.365Z,10.68
2023-01-21T10:25:31.384Z,9.10
2023-01-21T10:28:05.290Z,8.63
2023-01-21T10:30:41.912Z,8.88
2023-01-21T10:33:19.024Z,8.98
2023-01-21T10:35:58.154Z,8.95
2023-01-21T10:38:34.322Z,8.48
2023-01-21T10:41:11.449Z,8.65
2023-01-21T10:43:57.729Z,9.10
2023-01-21T10:46:43.397Z,7.95
2023-01-21T10:49:29.492Z,8.52
2023-01-21T10:52:05.794Z,9.50
2023-01-21T10:54:50.790Z,7.75
2023-01-21T10:57:52.966Z,7.90
2023-01-21T11:00:37.387Z,6.95
2023-01-21T11:03:12.868Z,7.90
2023-01-21T11:05:40.806Z,7.25
2023-01-21T11:08:21.588Z,6.80
2023-01-21T11:10:52.119Z,6.10
2023-01-21T11:13:19.253Z,7.07
2023-01-21T11:15:51.555Z,6.00
2023-01-21T11:18:41.991Z,5.78
2023-01-21T11:21:19.984Z,5.85
2023-01-21T11:23:58.610Z,7.43
2023-01-21T11:26:35.950Z,6.75
2023-01-21T11:29:22.486Z,6.38
2023-01-21T11:32:05.675Z,5.13
2023-01-21T11:34:33.836Z,5.68
2023-01-21T11:37:01.155Z,5.43
2023-01-21T11:39:40.451Z,8.95
2023-01-21T11:42:15.048Z,5.47
2023-01-21T11:45:24.132Z,5.30
2023-01-21T11:47:54.706Z,5.53
2023-01-21T11:50:33.961Z,5.45
2023-01-21T11:53:07.156Z,5.05
2023-01-21T11:55:41.277Z,4.90
2023-01-21T11:58:35.696Z,5.28
2023-01-21T12:01:18.477Z,4.75
2023-01-21T12:03:53.823Z,5.07
2023-01-21T12:06:25.928Z,5.25
2023-01-21T12:08:57.424Z,5.20
2023-01-21T12:11:27.777Z,4.63
2023-01-21T12:14:30.046Z,5.35
2023-01-21T12:16:59.943Z,5.00
2023-01-21T12:20:12.111Z,4.93
2023-01-21T12:22:58.432Z,4.15
2023-01-21T12:25:57.201Z,4.47
2023-01-21T12:28:54.030Z,5.60
2023-01-21T12:31:21.542Z,4.38
2023-01-21T12:33:53.429Z,4.50
2023-01-21T12:36:46.695Z,4.85
2023-01-21T12:39:37.636Z,4.40
2023-01-21T12:42:14.699Z,4.50
2023-01-21T12:44:50.872Z,4.30
2023-01-21T12:47:43.665Z,4.82
2023-01-21T12:50:26.352Z,5.30
2023-01-21T12:53:07.958Z,5.10
2023-01-21T12:55:53.619Z,3.58
2023-01-21T12:58:24.932Z,3.70
2023-01-21T13:00:58.136Z,4.03
2023-01-21T13:03:28.578Z,3.83
2023-01-21T13:06:08.032Z,5.13
2023-01-21T13:08:47.903Z,4.53
2023-01-21T13:11:38.336Z,7.72
2023-01-21T13:14:08.719Z,5.60
2023-01-21T13:16:40.982Z,4.03
2023-01-21T13:19:12.498Z,4.65
2023-01-21T13:21:46.200Z,4.60
2023-01-21T13:27:10.607Z,3.97
2023-01-21T13:29:56.523Z,4.20
2023-01-21T13:32:40.633Z,4.80
2023-01-21T13:35:46.383Z,4.57
2023-01-21T13:38:19.414Z,4.70
2023-01-21T13:40:51.676Z,5.15
2023-01-21T13:43:44.775Z,5.30
2023-01-21T13:46:15.153Z,5.50
2023-01-21T13:48:58.514Z,4.65
2023-01-21T13:51:53.367Z,5.28
2023-01-21T13:54:43.053Z,4.90
2023-01-21T13:57:31.565Z,5.28
2023-01-21T14:00:08.057Z,6.63
2023-01-21T14:02:51.221Z,5.70
2023-01-21T14:05:43.709Z,5.05
2023-01-21T14:08:17.086Z,5.65
2023-01-21T14:10:59.096Z,5.55
2023-01-21T14:13:49.483Z,6.00
2023-01-21T14:16:26.967Z,5.82
2023-01-21T14:18:57.502Z,5.30
2023-01-21T14:21:37.588Z,5.03
2023-01-21T14:24:31.693Z,5.40
2023-01-21T14:27:05.824Z,5.15
2023-01-21T14:29:53.176Z,6.18
2023-01-21T14:32:34.546Z,5.55
2023-01-21T14:35:04.720Z,5.38
2023-01-21T14:37:35.133Z,5.82
2023-01-21T14:40:26.687Z,5.70
2023-01-21T14:42:53.818Z,5.60
2023-01-21T14:45:22.926Z,5.88
2023-01-21T14:47:52.794Z,6.25
2023-01-21T14:50:55.181Z,6.75
2023-01-21T14:53:28.868Z,6.95
2023-01-21T14:58:37.938Z,5.38
2023-01-21T15:01:05.996Z,5.60
2023-01-21T15:03:34.143Z,5.60
2023-01-21T15:06:08.799Z,6.45
2023-01-21T15:08:44.058Z,5.13
2023-01-21T15:11:30.574Z,5.35
2023-01-21T15:14:06.591Z,5.30
2023-01-21T15:16:37.815Z,5.53
2023-01-21T15:19:08.009Z,5.63
2023-01-21T15:21:40.553Z,7.07
2023-01-21T15:24:29.859Z,5.28
2023-01-21T15:27:21.805Z,5.80
2023-01-21T15:29:54.853Z,6.00
2023-01-21T15:32:27.101Z,5.28
2023-01-21T15:35:31.172Z,5.30
2023-01-21T15:38:01.644Z,4.72
2023-01-21T15:40:52.953Z,5.72
2023-01-21T15:43:39.214Z,5.90
2023-01-21T15:46:17.769Z,5.22
2023-01-21T15:49:12.952Z,5.45
2023-01-21T15:51:55.087Z,5.43
2023-01-21T15:54:32.360Z,4.70
2023-01-21T15:57:23.618Z,5.10
2023-01-21T16:00:02.741Z,4.80
2023-01-21T16:02:33.568Z,4.50
2023-01-21T16:05:20.091Z,5.15
2023-01-21T16:07:59.630Z,4.88
2023-01-21T16:10:29.751Z,5.32
2023-01-21T16:13:08.428Z,4.68
2023-01-21T16:15:50.574Z,4.97
2023-01-21T16:18:29.671Z,5.90
2023-01-21T16:20:58.883Z,5.25
2023-01-21T16:23:29.180Z,5.00
2023-01-21T16:25:56.697Z,5.45
2023-01-21T16:28:39.527Z,5.78
2023-01-21T16:31:07.148Z,8.15
2023-01-21T16:33:34.232Z,5.50
2023-01-21T16:36:05.522Z,5.68
2023-01-21T16:38:38.743Z,5.50
2023-01-21T16:41:11.987Z,5.85
2023-01-21T16:43:46.117Z,5.90
2023-01-21T16:46:16.780Z,5.95
2023-01-21T16:48:48.762Z,6.43
2023-01-21T16:51:21.821Z,5.93
2023-01-21T16:53:49.540Z,6.37
2023-01-21T16:56:29.050Z,6.45
2023-01-21T16:58:56.488Z,6.72
2023-01-21T17:01:28.460Z,6.82
2023-01-21T17:03:55.594Z,7.07
2023-01-21T17:06:28.071Z,6.88
2023-01-21T17:09:04.788Z,7.65
2023-01-21T17:11:33.565Z,7.90
2023-01-21T17:14:06.894Z,7.63
2023-01-21T17:16:43.469Z,7.70
2023-01-21T17:19:22.945Z,7.95
2023-01-21T17:21:53.603Z,8.88
2023-01-21T17:24:32.436Z,8.63
2023-01-21T17:27:20.679Z,9.02
2023-01-21T17:29:48.024Z,8.60
2023-01-21T17:32:26.111Z,8.82
2023-01-21T17:35:10.375Z,9.02
2023-01-21T17:37:40.456Z,10.18
2023-01-21T17:40:27.632Z,8.68
2023-01-21T17:42:55.850Z,9.40
2023-01-21T17:45:36.521Z,10.32
2023-01-21T17:48:20.091Z,9.23
2023-01-21T17:50:47.185Z,9.60
2023-01-21T17:53:26.226Z,9.35
2023-01-21T17:56:00.274Z,11.57
2023-01-21T17:58:47.608Z,10.45
2023-01-21T18:01:15.629Z,9.85
2023-01-21T18:03:43.650Z,15.93
2023-01-21T18:06:18.414Z,12.13
2023-01-21T18:08:45.943Z,10.35
2023-01-21T18:11:17.246Z,11.07
2023-01-21T18:13:44.580Z,11.07
2023-01-21T18:16:11.753Z,10.82
2023-01-21T18:18:40.003Z,10.68
2023-01-21T18:21:19.028Z,11.25
2023-01-21T18:23:47.469Z,10.88
2023-01-21T18:26:28.515Z,11.02
2023-01-21T18:28:56.328Z,12.95
2023-01-21T18:31:23.498Z,12.73
2023-01-21T18:33:51.301Z,13.02
2023-01-21T18:36:20.586Z,12.45
2023-01-21T18:38:47.943Z,12.13
2023-01-21T18:41:14.987Z,11.10
2023-01-21T18:43:44.623Z,11.57
2023-01-21T18:46:15.329Z,12.63
2023-01-21T18:48:42.794Z,11.45
2023-01-21T18:51:12.132Z,11.52
2023-01-21T18:53:39.613Z,11.85
2023-01-21T18:56:12.465Z,12.65
2023-01-21T18:58:39.987Z,10.95
2023-01-21T19:01:21.455Z,12.27
2023-01-21T19:03:53.244Z,11.67
2023-01-21T19:06:22.563Z,12.40
2023-01-21T19:08:49.954Z,12.85
2023-01-21T19:11:19.313Z,12.38
2023-01-21T19:13:48.874Z,12.88
2023-01-21T19:16:17.775Z,11.80
2023-01-21T19:18:45.893Z,13.05
2023-01-21T19:21:13.078Z,12.93
2023-01-21T19:23:40.444Z,12.77
2023-01-21T19:26:07.990Z,11.20
2023-01-21T19:28:35.412Z,11.48
2023-01-21T19:31:02.609Z,10.75
2023-01-21T19:33:30.975Z,11.85
2023-01-21T19:36:04.650Z,10.88
2023-01-21T19:38:32.097Z,11.48
2023-01-21T19:40:59.185Z,11.60
2023-01-21T19:43:26.660Z,12.27
2023-01-21T19:46:00.705Z,11.73
2023-01-21T19:48:28.529Z,12.25
2023-01-21T19:50:55.675Z,11.75
2023-01-21T19:53:23.261Z,11.82
2023-01-21T19:55:50.536Z,11.68
2023-01-21T19:58:23.726Z,11.98
2023-01-21T20:00:52.813Z,12.02
2023-01-21T20:03:23.011Z,12.43
2023-01-21T20:05:57.666Z,12.10
2023-01-21T20:08:28.152Z,11.55
2023-01-21T20:10:55.676Z,14.45
2023-01-21T20:13:23.598Z,13.30
2023-01-21T20:15:52.402Z,12.35
2023-01-21T20:18:23.987Z,14.05
2023-01-21T20:20:52.251Z,12.10
2023-01-21T20:23:21.227Z,12.32
2023-01-21T20:25:51.961Z,15.23
2023-01-21T20:28:25.619Z,13.88
2023-01-21T20:30:54.416Z,14.18
2023-01-21T20:33:23.628Z,13.52
2023-01-21T20:35:55.462Z,14.38
2023-01-21T20:38:33.889Z,12.85
2023-01-21T20:41:02.135Z,12.43
2023-01-21T20:43:32.255Z,12.75
2023-01-21T20:46:02.963Z,12.23
2023-01-21T20:48:36.370Z,12.80
2023-01-21T20:51:08.793Z,12.87
2023-01-21T20:53:39.095Z,13.02
2023-01-21T20:56:18.280Z,12.93
2023-01-21T20:58:51.056Z,12.85
2023-01-21T21:01:21.612Z,12.95
2023-01-21T21:03:51.487Z,12.25
2023-01-21T21:06:21.243Z,12.95
2023-01-21T21:08:51.406Z,12.82
2023-01-21T21:11:21.416Z,13.63
2023-01-21T21:13:48.926Z,12.93
2023-01-21T21:16:25.260Z,13.77
2023-01-21T21:18:52.693Z,12.80
2023-01-21T21:21:23.986Z,12.48
2023-01-21T21:23:56.503Z,13.48
2023-01-21T21:26:27.934Z,14.15
2023-01-21T21:28:56.126Z,13.00
2023-01-21T21:31:28.379Z,13.00
2023-01-21T21:33:55.745Z,13.02
2023-01-21T21:36:25.695Z,13.05
2023-01-21T21:38:53.218Z,12.55
2023-01-21T21:41:22.426Z,12.48
2023-01-21T21:43:49.841Z,13.77
2023-01-21T21:46:19.463Z,13.80
2023-01-21T21:48:51.161Z,14.23
2023-01-21T21:51:18.628Z,14.75
2023-01-21T21:53:51.311Z,13.48
2023-01-21T21:56:25.823Z,14.63
2023-01-21T21:58:55.366Z,12.85
2023-01-21T22:01:25.261Z,13.07
2023-01-21T22:03:55.064Z,13.73
2023-01-21T22:06:25.321Z,12.70
2023-01-21T22:08:54.934Z,14.43
2023-01-21T22:11:25.797Z,15.05
2023-01-21T22:13:54.668Z,13.77
2023-01-21T22:16:27.177Z,14.65
2023-01-21T22:18:56.289Z,15.93
2023-01-21T22:21:29.214Z,16.58
2023-01-21T22:23:56.653Z,15.20
2023-01-21T22:26:25.396Z,17.92
2023-01-21T22:28:55.764Z,17.33
2023-01-21T22:31:25.576Z,16.95
2023-01-21T22:33:53.358Z,19.00
2023-01-21T22:36:23.539Z,18.73
2023-01-21T22:38:59.029Z,17.48
2023-01-21T22:41:26.708Z,16.35
2023-01-21T22:43:56.608Z,16.75
2023-01-21T22:46:27.113Z,16.42
2023-01-21T22:48:55.066Z,17.67
2023-01-21T22:51:22.822Z,18.00
2023-01-21T22:53:51.144Z,18.27
2023-01-21T22:56:20.178Z,16.73
2023-01-21T22:58:50.067Z,16.35
2023-01-21T23:01:31.601Z,17.83
2023-01-21T23:03:59.817Z,18.73
2023-01-21T23:06:27.114Z,16.80
2023-01-21T23:08:54.571Z,17.90
2023-01-21T23:11:21.962Z,19.13
2023-01-21T23:13:49.363Z,18.98
2023-01-21T23:16:22.094Z,18.15
2023-01-21T23:18:49.729Z,19.63
2023-01-21T23:21:21.987Z,19.52
2023-01-21T23:23:50.092Z,18.90
2023-01-21T23:26:18.501Z,18.90
2023-01-21T23:28:46.218Z,17.73
2023-01-21T23:31:15.652Z,17.63
2023-01-21T23:33:53.731Z,18.45
2023-01-21T23:36:20.943Z,18.33
2023-01-21T23:38:48.438Z,19.10
2023-01-21T23:41:16.191Z,17.98
2023-01-21T23:43:45.784Z,20.10
2023-01-21T23:46:15.494Z,17.52
2023-01-21T23:48:43.039Z,19.38
2023-01-21T23:51:13.219Z,18.08
2023-01-21T23:53:43.305Z,17.55
2023-01-21T23:56:14.345Z,18.90
2023-01-21T23:58:44.260Z,18.85
